Time;durP1;ratioP1;P1;durP2;ratioP2;P2;SDS_P1;SDS_P2;PMS_P1;PMS_P2;Temp;Humidity;BMP_temperature;BMP_pressure;BME280_temperature;BME280_humidity;BME280_pressure;Samples;Min_cycle;Max_cycle;Signal;HPM_P1;HPM_P2
2023/04/13 00:00:29;;;;;;;0.68;0.50;;;5.70;99.90;;;;;;5049897;28;20670;-71
2023/04/13 00:02:57;;;;;;;0.95;0.43;;;5.70;99.90;;;;;;5049845;28;20202;-71
2023/04/13 00:05:26;;;;;;;0.70;0.70;;;5.70;99.90;;;;;;5050291;28;20312;-71
2023/04/13 00:07:55;;;;;;;0.50;0.40;;;5.70;99.90;;;;;;5050136;28;20213;-71
2023/04/13 00:10:24;;;;;;;0.60;0.50;;;5.70;99.90;;;;;;5050030;28;20630;-69
2023/04/13 00:12:52;;;;;;;0.60;0.40;;;5.60;99.90;;;;;;5050070;28;20219;-71
2023/04/13 00:15:20;;;;;;;0.50;0.40;;;5.60;99.90;;;;;;5037747;28;20309;-71
2023/04/13 00:17:48;;;;;;;0.60;0.50;;;5.70;99.90;;;;;;5050743;28;20241;-70
2023/04/13 00:20:16;;;;;;;0.60;0.57;;;5.60;99.90;;;;;;5049542;28;20228;-71
2023/04/13 00:22:45;;;;;;;0.50;0.40;;;5.70;99.90;;;;;;5050254;28;20209;-73
2023/04/13 00:25:14;;;;;;;0.60;0.40;;;5.70;99.90;;;;;;5049948;28;20233;-72
2023/04/13 00:27:44;;;;;;;0.50;0.40;;;5.70;99.90;;;;;;5050084;28;20298;-72
2023/04/13 00:30:14;;;;;;;0.50;0.40;;;5.70;99.90;;;;;;5049626;28;20220;-71
2023/04/13 00:32:44;;;;;;;0.50;0.40;;;5.70;99.90;;;;;;5049183;28;20677;-72
2023/04/13 00:35:17;;;;;;;0.52;0.38;;;5.60;99.90;;;;;;5049880;28;20230;-71
2023/04/13 00:37:45;;;;;;;0.60;0.40;;;5.60;99.90;;;;;;5050179;28;20229;-71
2023/04/13 00:40:14;;;;;;;0.60;0.40;;;5.60;99.90;;;;;;5049450;28;20210;-72
2023/04/13 00:42:45;;;;;;;0.60;0.40;;;5.60;99.90;;;;;;5050287;28;20245;-71
2023/04/13 00:45:13;;;;;;;0.50;0.40;;;5.60;99.90;;;;;;5049842;28;20704;-71
2023/04/13 00:47:45;;;;;;;0.50;0.40;;;5.60;99.90;;;;;;5049936;28;20210;-71
2023/04/13 00:50:14;;;;;;;0.75;0.47;;;5.60;99.90;;;;;;5052725;28;20206;-71
2023/04/13 00:52:42;;;;;;;0.60;0.40;;;5.60;99.90;;;;;;5053916;28;20297;-72
2023/04/13 00:55:12;;;;;;;0.60;0.40;;;5.60;99.90;;;;;;5051905;28;20262;-72
2023/04/13 00:57:40;;;;;;;0.50;0.40;;;5.60;99.90;;;;;;5048812;28;20286;-71
2023/04/13 01:00:12;;;;;;;0.50;0.40;;;5.50;99.90;;;;;;5053209;28;20296;-73
2023/04/13 01:02:40;;;;;;;0.60;0.40;;;5.50;99.90;;;;;;5052079;28;20293;-72
2023/04/13 01:05:11;;;;;;;0.60;0.40;;;5.50;99.90;;;;;;5052837;28;20242;-72
2023/04/13 01:07:46;;;;;;;0.63;0.50;;;5.50;99.90;;;;;;5053481;28;20210;-71
2023/04/13 01:10:20;;;;;;;0.50;0.40;;;5.50;99.90;;;;;;5053176;28;20234;-71
2023/04/13 01:12:55;;;;;;;0.50;0.30;;;5.50;99.90;;;;;;5053468;28;20257;-72
2023/04/13 01:15:26;;;;;;;0.50;0.40;;;5.50;99.90;;;;;;5045069;28;20217;-73
2023/04/13 01:17:58;;;;;;;0.50;0.40;;;5.50;99.90;;;;;;5053411;28;20237;-72
2023/04/13 01:20:28;;;;;;;0.60;0.40;;;5.40;99.90;;;;;;5045718;28;20210;-70
2023/04/13 01:22:58;;;;;;;1.77;0.50;;;5.40;99.90;;;;;;5053170;28;20211;-73
2023/04/13 01:25:37;;;;;;;0.70;0.40;;;5.50;99.90;;;;;;5049999;28;20343;-72
2023/04/13 01:28:11;;;;;;;0.60;0.43;;;5.40;99.90;;;;;;5050457;28;20293;-72
2023/04/13 01:30:41;;;;;;;0.50;0.30;;;5.50;99.90;;;;;;5053209;28;20296;-72
2023/04/13 01:33:10;;;;;;;0.60;0.40;;;5.40;99.90;;;;;;5051168;28;20766;-72
2023/04/13 01:35:39;;;;;;;0.65;0.40;;;5.50;99.90;;;;;;5051419;28;20230;-71
2023/04/13 01:38:07;;;;;;;0.60;0.40;;;5.50;99.90;;;;;;5050935;28;20289;-72
2023/04/13 01:40:39;;;;;;;0.60;0.43;;;5.60;99.90;;;;;;5051226;28;20216;-72
2023/04/13 01:43:08;;;;;;;0.50;0.40;;;5.60;99.90;;;;;;5052253;28;20285;-72
2023/04/13 01:45:45;;;;;;;0.50;0.40;;;5.50;99.90;;;;;;5050855;28;20231;-73
2023/04/13 01:48:18;;;;;;;0.50;0.40;;;5.50;99.90;;;;;;5050350;28;20210;-71
2023/04/13 01:50:50;;;;;;;0.70;0.40;;;5.60;99.90;;;;;;5052782;28;20292;-71
2023/04/13 01:53:23;;;;;;;0.50;0.40;;;5.60;99.90;;;;;;5052402;28;20328;-72
2023/04/13 01:55:52;;;;;;;0.50;0.40;;;5.60;99.90;;;;;;5052401;28;20214;-72
2023/04/13 01:58:26;;;;;;;0.85;0.45;;;5.60;99.90;;;;;;5052119;28;20264;-72
2023/04/13 02:00:55;;;;;;;0.50;0.30;;;5.60;99.90;;;;;;5051369;28;20205;-71
2023/04/13 02:03:23;;;;;;;0.77;0.40;;;5.60;99.90;;;;;;5052044;28;20212;-71
2023/04/13 02:05:51;;;;;;;0.50;0.40;;;5.70;99.90;;;;;;5052513;28;20622;-72
2023/04/13 02:08:19;;;;;;;0.52;0.38;;;5.70;99.90;;;;;;5052183;28;20235;-72
2023/04/13 02:10:47;;;;;;;0.50;0.40;;;5.70;99.90;;;;;;5052615;28;20237;-71
2023/04/13 02:13:15;;;;;;;0.50;0.40;;;5.70;99.90;;;;;;5052284;28;20217;-72
2023/04/13 02:15:45;;;;;;;0.90;0.50;;;5.70;99.90;;;;;;5052201;28;20661;-72
2023/04/13 02:18:13;;;;;;;0.90;0.60;;;5.70;99.90;;;;;;5052330;28;20690;-71
2023/04/13 02:20:44;;;;;;;0.60;0.55;;;5.70;99.90;;;;;;5048985;28;20293;-71
2023/04/13 02:23:14;;;;;;;0.55;0.40;;;5.70;99.90;;;;;;5048774;28;20198;-72
2023/04/13 02:25:45;;;;;;;0.60;0.40;;;5.70;99.90;;;;;;5050138;28;20640;-72
2023/04/13 02:28:16;;;;;;;1.02;0.95;;;5.70;99.90;;;;;;5048536;28;20684;-71
2023/04/13 02:30:46;;;;;;;0.50;0.30;;;5.80;99.90;;;;;;5043640;28;20347;-71
2023/04/13 02:33:14;;;;;;;0.50;0.40;;;5.80;99.90;;;;;;5047831;28;20298;-70
2023/04/13 02:35:42;;;;;;;0.60;0.47;;;5.80;99.90;;;;;;5046417;28;20304;-72
2023/04/13 02:38:10;;;;;;;0.70;0.40;;;5.90;99.90;;;;;;5046790;28;20203;-73
2023/04/13 02:40:38;;;;;;;0.60;0.50;;;6.00;99.90;;;;;;5049438;28;20219;-73
2023/04/13 02:43:06;;;;;;;0.85;0.70;;;6.10;99.90;;;;;;5047263;28;20650;-74
2023/04/13 02:45:34;;;;;;;0.50;0.40;;;6.20;99.90;;;;;;5042235;28;20315;-72
2023/04/13 02:48:04;;;;;;;0.50;0.40;;;6.20;99.90;;;;;;5045029;28;20706;-71
2023/04/13 02:50:32;;;;;;;0.60;0.50;;;6.30;99.90;;;;;;5047310;28;20394;-71
2023/04/13 02:52:59;;;;;;;1.60;0.65;;;6.30;99.90;;;;;;5046278;28;20290;-72
2023/04/13 02:55:27;;;;;;;0.50;0.30;;;6.40;99.90;;;;;;5048411;28;20229;-72
2023/04/13 02:57:56;;;;;;;0.80;0.60;;;6.40;99.90;;;;;;5047686;28;20743;-72
2023/04/13 03:00:25;;;;;;;0.63;0.60;;;6.40;99.90;;;;;;5047094;28;20204;-72
2023/04/13 03:02:53;;;;;;;0.50;0.40;;;6.40;99.90;;;;;;5048337;28;20206;-72
2023/04/13 03:05:23;;;;;;;0.50;0.30;;;6.40;99.90;;;;;;5072953;22;20236;-64
2023/04/13 03:07:50;;;;;;;0.50;0.30;;;6.40;99.90;;;;;;5047813;28;20290;-63
2023/04/13 03:10:18;;;;;;;1.05;0.50;;;6.40;99.90;;;;;;5048549;28;20210;-63
2023/04/13 03:12:46;;;;;;;0.60;0.40;;;6.40;99.90;;;;;;5053105;28;20297;-63
2023/04/13 03:15:14;;;;;;;0.50;0.30;;;6.50;99.90;;;;;;5065763;28;20593;-63
2023/04/13 03:17:42;;;;;;;0.60;0.40;;;6.50;99.90;;;;;;5057020;28;20237;-63
2023/04/13 03:20:12;;;;;;;0.50;0.40;;;6.40;99.90;;;;;;5060218;28;20210;-63
2023/04/13 03:22:42;;;;;;;0.60;0.40;;;6.50;99.90;;;;;;5057812;28;20210;-64
2023/04/13 03:25:09;;;;;;;0.50;0.40;;;6.40;99.90;;;;;;5058468;28;20312;-62
2023/04/13 03:27:37;;;;;;;1.58;0.68;;;6.40;99.90;;;;;;5050156;28;20293;-62
2023/04/13 03:30:07;;;;;;;0.60;0.40;;;6.40;99.90;;;;;;5038025;28;20203;-62
2023/04/13 03:32:35;;;;;;;0.50;0.40;;;6.40;99.90;;;;;;5043820;28;20214;-63
2023/04/13 03:35:03;;;;;;;0.50;0.40;;;6.50;99.90;;;;;;5039846;28;20236;-62
2023/04/13 03:37:39;;;;;;;0.50;0.30;;;6.50;99.90;;;;;;5045057;28;20223;-63
2023/04/13 03:40:09;;;;;;;1.23;1.10;;;6.50;99.90;;;;;;5041629;28;20207;-62
2023/04/13 03:42:38;;;;;;;0.90;0.55;;;6.50;99.90;;;;;;5040258;28;20220;-63
2023/04/13 03:45:07;;;;;;;0.50;0.30;;;6.60;99.90;;;;;;5037025;28;20242;-63
2023/04/13 03:47:34;;;;;;;0.50;0.40;;;6.60;99.90;;;;;;5049089;28;20260;-63
2023/04/13 03:50:03;;;;;;;0.50;0.30;;;6.70;99.90;;;;;;5036088;28;20246;-63
2023/04/13 03:52:31;;;;;;;0.50;0.40;;;6.70;99.90;;;;;;5036951;28;20675;-63
2023/04/13 03:54:59;;;;;;;0.60;0.40;;;6.70;99.90;;;;;;5039642;28;20245;-64
2023/04/13 03:57:29;;;;;;;0.50;0.40;;;6.70;99.90;;;;;;5035072;28;20286;-63
2023/04/13 03:59:57;;;;;;;0.50;0.38;;;6.80;99.90;;;;;;5043816;28;20589;-64
2023/04/13 04:02:25;;;;;;;0.60;0.50;;;6.80;99.90;;;;;;5038977;28;20290;-63
2023/04/13 04:04:53;;;;;;;0.57;0.40;;;6.90;99.90;;;;;;5037728;28;20700;-63
2023/04/13 04:07:22;;;;;;;0.50;0.40;;;6.90;99.90;;;;;;5035695;28;20239;-63
2023/04/13 04:09:50;;;;;;;0.60;0.40;;;6.90;99.90;;;;;;5029930;28;20238;-63
2023/04/13 04:12:18;;;;;;;0.60;0.50;;;6.90;99.90;;;;;;5040438;28;20211;-63
2023/04/13 04:14:47;;;;;;;0.60;0.40;;;6.90;99.90;;;;;;5033622;28;20226;-63
2023/04/13 04:17:15;;;;;;;0.50;0.30;;;6.90;99.90;;;;;;5038618;28;20215;-63
2023/04/13 04:19:43;;;;;;;0.80;0.50;;;6.90;99.90;;;;;;5035350;28;20290;-64
2023/04/13 04:22:12;;;;;;;0.50;0.40;;;7.00;99.90;;;;;;5041858;28;20679;-64
2023/04/13 04:24:41;;;;;;;0.73;0.50;;;7.00;99.90;;;;;;5061076;28;20276;-63
2023/04/13 04:27:13;;;;;;;0.60;0.40;;;7.00;99.90;;;;;;5054058;28;20220;-63
2023/04/13 04:29:47;;;;;;;0.50;0.30;;;7.00;99.90;;;;;;5045450;28;20211;-64
2023/04/13 04:32:17;;;;;;;0.50;0.40;;;7.00;99.90;;;;;;5042555;28;20252;-63
2023/04/13 04:34:46;;;;;;;1.55;0.70;;;7.00;99.90;;;;;;5034967;28;20284;-62
2023/04/13 04:37:14;;;;;;;0.50;0.40;;;7.00;99.90;;;;;;5045442;28;20229;-63
2023/04/13 04:39:47;;;;;;;0.70;0.50;;;7.00;99.90;;;;;;5037802;28;20237;-63
2023/04/13 04:42:17;;;;;;;1.58;0.40;;;7.00;99.90;;;;;;5042027;28;20762;-63
2023/04/13 04:44:48;;;;;;;0.50;0.30;;;7.00;99.90;;;;;;5040725;28;20377;-63
2023/04/13 04:47:18;;;;;;;0.50;0.40;;;7.00;99.90;;;;;;5038294;28;20613;-63
2023/04/13 04:49:46;;;;;;;0.60;0.40;;;6.90;99.90;;;;;;5040741;28;20701;-63
2023/04/13 04:52:14;;;;;;;0.60;0.50;;;6.90;99.90;;;;;;5035377;28;20660;-63
2023/04/13 04:54:42;;;;;;;0.50;0.30;;;7.00;99.90;;;;;;5035276;28;20227;-63
2023/04/13 04:57:11;;;;;;;0.60;0.40;;;7.00;99.90;;;;;;5048173;28;20280;-62
2023/04/13 04:59:39;;;;;;;0.50;0.38;;;6.90;99.90;;;;;;5044161;28;20210;-64
2023/04/13 05:02:07;;;;;;;0.50;0.40;;;7.00;99.90;;;;;;5041383;28;20211;-63
2023/04/13 05:04:38;;;;;;;0.73;0.50;;;7.00;99.90;;;;;;5043121;28;20241;-61
2023/04/13 05:07:06;;;;;;;0.50;0.30;;;7.00;99.90;;;;;;5035600;28;20701;-63
2023/04/13 05:09:35;;;;;;;0.50;0.40;;;7.00;99.90;;;;;;5040993;28;20222;-63
2023/04/13 05:12:04;;;;;;;0.65;0.40;;;7.00;99.90;;;;;;5045146;28;20718;-64
2023/04/13 05:14:31;;;;;;;0.50;0.40;;;7.00;99.90;;;;;;5039178;28;20238;-64
2023/04/13 05:17:00;;;;;;;0.60;0.40;;;7.10;99.90;;;;;;5046717;28;20775;-63
2023/04/13 05:19:28;;;;;;;0.70;0.40;;;7.10;99.90;;;;;;5045939;28;20215;-63
2023/04/13 05:21:59;;;;;;;0.50;0.40;;;7.10;99.90;;;;;;5043657;28;20211;-64
2023/04/13 05:24:27;;;;;;;0.60;0.40;;;7.10;99.90;;;;;;5039843;28;20222;-63
2023/04/13 05:26:56;;;;;;;0.50;0.30;;;7.20;99.90;;;;;;5042308;28;20231;-63
2023/04/13 05:29:24;;;;;;;0.50;0.40;;;7.20;99.90;;;;;;5040919;28;20216;-64
2023/04/13 05:31:52;;;;;;;0.60;0.45;;;7.20;99.90;;;;;;5039103;28;20203;-63
2023/04/13 05:34:20;;;;;;;0.60;0.40;;;7.20;99.90;;;;;;5058720;28;20744;-63
2023/04/13 05:36:49;;;;;;;2.45;0.60;;;7.30;99.90;;;;;;5056224;28;20263;-63
2023/04/13 05:39:18;;;;;;;0.93;0.60;;;7.30;99.90;;;;;;5061937;28;20293;-63
2023/04/13 05:41:46;;;;;;;0.60;0.50;;;7.30;99.90;;;;;;5065327;28;20265;-64
2023/04/13 05:44:14;;;;;;;0.60;0.45;;;7.30;99.90;;;;;;5055500;28;20215;-63
2023/04/13 05:46:41;;;;;;;0.60;0.40;;;7.30;99.90;;;;;;5060710;28;20286;-63
2023/04/13 05:49:10;;;;;;;0.60;0.40;;;7.30;99.90;;;;;;5061068;28;20549;-64
2023/04/13 05:51:38;;;;;;;0.60;0.40;;;7.30;99.90;;;;;;5052939;28;20235;-63
2023/04/13 05:54:08;;;;;;;0.70;0.40;;;7.30;99.90;;;;;;5060969;28;20231;-63
2023/04/13 05:56:37;;;;;;;0.60;0.50;;;7.30;99.90;;;;;;5059262;28;20218;-63
2023/04/13 05:59:06;;;;;;;0.50;0.40;;;7.30;99.90;;;;;;5059846;28;20298;-63
2023/04/13 06:01:33;;;;;;;0.68;0.50;;;7.30;99.90;;;;;;5055921;28;20239;-63
2023/04/13 06:04:02;;;;;;;0.50;0.40;;;7.30;99.90;;;;;;5060630;28;20707;-62
2023/04/13 06:06:30;;;;;;;0.60;0.40;;;7.30;99.90;;;;;;5068851;28;20204;-63
2023/04/13 06:08:58;;;;;;;0.60;0.40;;;7.30;99.90;;;;;;5052399;28;20671;-63
2023/04/13 06:11:27;;;;;;;0.50;0.38;;;7.40;99.90;;;;;;5062340;28;20206;-62
2023/04/13 06:13:56;;;;;;;0.50;0.40;;;7.40;99.90;;;;;;5057328;28;20281;-62
2023/04/13 06:16:26;;;;;;;0.50;0.40;;;7.40;99.90;;;;;;5068551;28;20219;-63
2023/04/13 06:18:54;;;;;;;0.60;0.50;;;7.50;99.90;;;;;;5055143;28;20207;-63
2023/04/13 06:21:22;;;;;;;0.60;0.50;;;7.50;99.90;;;;;;5038664;28;20214;-63
2023/04/13 06:23:50;;;;;;;1.58;0.65;;;7.50;99.90;;;;;;5051832;28;20234;-63
2023/04/13 06:26:18;;;;;;;0.50;0.40;;;7.50;99.90;;;;;;5051514;28;20661;-62
2023/04/13 06:28:46;;;;;;;0.60;0.40;;;7.60;99.90;;;;;;5051710;28;20203;-63
2023/04/13 06:31:15;;;;;;;0.70;0.50;;;7.60;99.90;;;;;;5050034;28;20472;-62
2023/04/13 06:33:43;;;;;;;3.35;0.57;;;7.60;99.90;;;;;;5044076;28;20204;-64
2023/04/13 06:36:11;;;;;;;0.50;0.40;;;7.60;99.90;;;;;;5051493;28;20305;-63
2023/04/13 06:38:39;;;;;;;0.50;0.40;;;7.70;99.90;;;;;;5051500;28;20579;-63
2023/04/13 06:41:07;;;;;;;0.70;0.50;;;7.80;99.90;;;;;;5050374;28;20203;-63
2023/04/13 06:43:35;;;;;;;0.50;0.40;;;7.90;99.90;;;;;;5048525;28;20236;-63
2023/04/13 06:46:04;;;;;;;0.60;0.60;;;7.90;99.90;;;;;;5050924;28;20240;-62
2023/04/13 06:48:33;;;;;;;0.50;0.30;;;8.00;99.90;;;;;;5051004;28;20576;-63
2023/04/13 06:51:01;;;;;;;0.50;0.38;;;8.10;99.90;;;;;;5047787;28;20694;-63
2023/04/13 06:53:29;;;;;;;0.60;0.40;;;8.20;99.90;;;;;;5057775;28;20281;-64
2023/04/13 06:55:57;;;;;;;0.60;0.50;;;8.40;99.90;;;;;;5059787;28;20223;-63
2023/04/13 06:58:25;;;;;;;0.50;0.30;;;8.60;99.90;;;;;;5051399;28;20216;-64
2023/04/13 07:00:53;;;;;;;1.58;0.90;;;8.60;99.90;;;;;;5057328;28;20679;-63
2023/04/13 07:03:21;;;;;;;2.35;0.95;;;8.70;99.90;;;;;;5046833;28;20203;-62
2023/04/13 07:05:51;;;;;;;0.50;0.40;;;8.60;99.90;;;;;;5047155;28;20270;-63
2023/04/13 07:08:19;;;;;;;0.50;0.35;;;8.60;99.90;;;;;;5048986;28;20568;-62
2023/04/13 07:10:46;;;;;;;0.50;0.40;;;8.50;99.90;;;;;;5053069;28;20304;-63
2023/04/13 07:13:14;;;;;;;0.50;0.40;;;8.40;99.90;;;;;;5053809;28;20282;-63
2023/04/13 07:15:42;;;;;;;0.50;0.38;;;8.40;99.90;;;;;;5049012;28;20252;-64
2023/04/13 07:18:10;;;;;;;0.70;0.50;;;8.30;99.90;;;;;;5041340;28;20233;-63
2023/04/13 07:20:38;;;;;;;1.23;0.40;;;8.30;99.90;;;;;;5054949;28;20286;-63
2023/04/13 07:23:08;;;;;;;1.20;0.93;;;8.30;99.90;;;;;;5042231;28;20605;-62
2023/04/13 07:25:36;;;;;;;0.80;0.50;;;8.30;99.90;;;;;;5048554;28;20262;-63
2023/04/13 07:28:04;;;;;;;0.60;0.40;;;8.30;99.90;;;;;;5046757;28;20210;-63
2023/04/13 07:30:32;;;;;;;0.50;0.40;;;8.30;99.90;;;;;;5049875;28;20206;-63
2023/04/13 07:33:00;;;;;;;0.80;0.60;;;8.30;99.90;;;;;;5043208;28;20619;-64
2023/04/13 07:35:28;;;;;;;0.70;0.50;;;8.20;99.90;;;;;;5035367;28;20234;-63
2023/04/13 07:37:56;;;;;;;0.50;0.30;;;8.20;99.90;;;;;;5047135;28;20299;-63
2023/04/13 07:40:25;;;;;;;0.60;0.40;;;8.20;99.90;;;;;;5038910;28;20206;-63
2023/04/13 07:42:53;;;;;;;0.50;0.40;;;8.10;99.90;;;;;;5040289;28;20282;-63
2023/04/13 07:45:21;;;;;;;0.63;0.50;;;8.10;99.90;;;;;;5036687;28;20224;-62
2023/04/13 07:47:49;;;;;;;0.60;0.50;;;8.10;99.90;;;;;;5044974;28;20226;-62
2023/04/13 07:50:17;;;;;;;0.70;0.50;;;8.10;99.90;;;;;;5035534;28;20216;-63
2023/04/13 07:52:45;;;;;;;0.75;0.75;;;8.10;99.90;;;;;;5038379;28;20286;-63
2023/04/13 07:55:13;;;;;;;0.60;0.40;;;8.10;99.90;;;;;;5039504;28;20230;-63
2023/04/13 07:57:42;;;;;;;0.50;0.40;;;8.10;99.90;;;;;;5032141;28;20226;-62
2023/04/13 08:00:13;;;;;;;0.90;0.52;;;8.10;99.90;;;;;;5034297;28;20394;-62
2023/04/13 08:02:41;;;;;;;0.60;0.47;;;8.10;99.90;;;;;;5034531;28;20208;-63
2023/04/13 08:05:10;;;;;;;0.50;0.40;;;8.10;99.90;;;;;;5038497;28;20236;-63
2023/04/13 08:07:38;;;;;;;1.00;0.70;;;8.00;99.90;;;;;;5037741;28;20208;-63
2023/04/13 08:10:07;;;;;;;0.70;0.40;;;8.00;99.90;;;;;;5039550;28;20202;-62
2023/04/13 08:12:35;;;;;;;0.80;0.80;;;8.00;99.90;;;;;;5041019;28;20217;-62
2023/04/13 08:15:05;;;;;;;0.50;0.40;;;8.10;99.90;;;;;;5042243;28;20669;-63
2023/04/13 08:17:33;;;;;;;0.60;0.50;;;8.20;99.90;;;;;;5032266;28;20227;-63
2023/04/13 08:20:02;;;;;;;0.60;0.40;;;8.20;99.90;;;;;;5049334;28;20289;-62
2023/04/13 08:22:30;;;;;;;0.60;0.40;;;8.30;99.90;;;;;;5035316;28;21227;-63
2023/04/13 08:24:58;;;;;;;0.50;0.40;;;8.20;99.90;;;;;;5038948;28;20662;-62
2023/04/13 08:27:27;;;;;;;0.50;0.40;;;8.30;99.90;;;;;;5039106;28;20199;-63
2023/04/13 08:29:59;;;;;;;0.50;0.40;;;8.40;99.90;;;;;;5040859;28;20262;-63
2023/04/13 08:32:29;;;;;;;0.70;0.60;;;8.40;99.90;;;;;;5043874;28;20895;-62
2023/04/13 08:34:57;;;;;;;0.50;0.40;;;8.40;99.90;;;;;;5035961;28;20231;-62
2023/04/13 08:37:28;;;;;;;0.57;0.45;;;8.40;99.90;;;;;;5038473;28;20223;-63
2023/04/13 08:39:59;;;;;;;0.52;0.40;;;8.40;99.90;;;;;;5031931;28;20193;-62
2023/04/13 08:42:27;;;;;;;0.50;0.40;;;8.50;99.90;;;;;;5040417;28;20223;-62
2023/04/13 08:44:58;;;;;;;0.50;0.30;;;8.50;99.90;;;;;;5039604;28;20219;-63
2023/04/13 08:47:27;;;;;;;0.50;0.40;;;8.60;99.90;;;;;;5038731;28;20818;-62
2023/04/13 08:49:58;;;;;;;0.50;0.40;;;8.60;99.90;;;;;;5041705;28;20334;-62
2023/04/13 08:52:27;;;;;;;0.60;0.50;;;8.60;99.90;;;;;;5042077;28;20620;-62
2023/04/13 08:54:57;;;;;;;0.50;0.40;;;8.60;99.90;;;;;;5034141;28;20228;-62
2023/04/13 08:57:25;;;;;;;0.60;0.45;;;8.70;99.90;;;;;;5040935;28;20253;-62
2023/04/13 08:59:53;;;;;;;0.60;0.40;;;8.70;99.90;;;;;;5037203;28;20949;-62
2023/04/13 09:02:24;;;;;;;0.95;0.50;;;8.60;99.90;;;;;;5037992;28;20220;-62
2023/04/13 09:04:54;;;;;;;0.80;0.50;;;8.70;99.90;;;;;;5042269;28;20262;-63
2023/04/13 09:07:29;;;;;;;0.50;0.40;;;8.60;99.90;;;;;;5037996;28;20207;-63
2023/04/13 09:09:58;;;;;;;0.70;0.40;;;8.60;99.90;;;;;;5043233;28;20210;-63
2023/04/13 09:12:27;;;;;;;0.50;0.40;;;8.50;99.90;;;;;;5048205;28;20296;-62
2023/04/13 09:14:55;;;;;;;0.50;0.30;;;8.50;99.90;;;;;;5042442;28;20241;-63
2023/04/13 09:17:25;;;;;;;0.80;0.50;;;8.50;99.90;;;;;;5071111;22;20731;-69
2023/04/13 09:19:55;;;;;;;0.90;0.70;;;8.60;99.90;;;;;;5062966;28;20199;-69
2023/04/13 09:22:24;;;;;;;0.70;0.52;;;8.60;99.90;;;;;;5068930;28;20278;-69
2023/04/13 09:24:52;;;;;;;0.50;0.40;;;8.70;99.90;;;;;;5068895;28;20198;-70
2023/04/13 09:27:22;;;;;;;0.60;0.40;;;8.80;99.90;;;;;;5066641;28;20790;-70
2023/04/13 09:29:51;;;;;;;0.50;0.40;;;8.90;99.90;;;;;;5067282;28;20727;-70
2023/04/13 09:32:21;;;;;;;0.50;0.40;;;8.90;99.90;;;;;;5068945;28;20230;-69
2023/04/13 09:35:00;;;;;;;0.70;0.70;;;8.90;99.90;;;;;;5069797;28;20611;-69
2023/04/13 09:37:31;;;;;;;2.05;0.70;;;9.00;99.90;;;;;;5066981;28;20255;-69
2023/04/13 09:40:09;;;;;;;0.52;0.43;;;9.00;99.90;;;;;;5079948;28;20316;-70
2023/04/13 09:42:38;;;;;;;0.50;0.40;;;9.00;99.90;;;;;;5078262;28;20214;-71
2023/04/13 09:45:07;;;;;;;0.50;0.40;;;9.10;99.90;;;;;;5059096;28;20286;-69
2023/04/13 09:47:37;;;;;;;0.50;0.30;;;9.10;99.90;;;;;;5054841;28;20843;-69
2023/04/13 09:50:16;;;;;;;0.50;0.30;;;9.10;99.90;;;;;;5073198;28;20200;-73
2023/04/13 09:52:45;;;;;;;0.50;0.40;;;9.10;99.90;;;;;;5064675;28;20614;-69
2023/04/13 09:55:16;;;;;;;0.50;0.30;;;9.20;99.90;;;;;;5066615;28;20196;-69
2023/04/13 09:57:44;;;;;;;0.50;0.30;;;9.30;99.90;;;;;;5066906;28;20504;-70
2023/04/13 10:00:19;;;;;;;0.50;0.30;;;9.50;99.90;;;;;;5064606;28;20207;-69
2023/04/13 10:02:49;;;;;;;0.50;0.32;;;9.60;99.90;;;;;;5071906;28;20259;-69
2023/04/13 10:05:17;;;;;;;0.50;0.35;;;9.50;99.90;;;;;;5067739;28;20207;-71
2023/04/13 10:07:55;;;;;;;0.50;0.30;;;9.50;99.90;;;;;;5070448;28;20220;-69
2023/04/13 10:10:25;;;;;;;0.50;0.30;;;9.40;99.90;;;;;;5064843;28;20222;-70
2023/04/13 10:12:57;;;;;;;0.50;0.40;;;9.40;99.90;;;;;;5065604;28;20196;-69
2023/04/13 10:15:36;;;;;;;0.50;0.40;;;9.50;99.90;;;;;;5066130;28;20294;-69
2023/04/13 10:18:15;;;;;;;0.60;0.47;;;9.60;99.90;;;;;;5067898;28;20252;-69
2023/04/13 10:20:44;;;;;;;0.70;0.50;;;9.50;99.90;;;;;;5060627;28;20241;-69
2023/04/13 10:23:13;;;;;;;0.50;0.40;;;9.60;99.90;;;;;;5063976;28;20213;-70
2023/04/13 10:25:49;;;;;;;0.50;0.40;;;9.70;99.90;;;;;;5066125;28;20221;-70
2023/04/13 10:28:18;;;;;;;0.50;0.40;;;9.90;99.90;;;;;;5066658;28;20221;-69
2023/04/13 10:30:49;;;;;;;0.50;0.30;;;10.20;99.90;;;;;;5067147;28;20235;-69
2023/04/13 10:33:17;;;;;;;0.50;0.30;;;10.70;99.90;;;;;;5067697;28;20199;-68
2023/04/13 10:35:56;;;;;;;0.50;0.40;;;11.10;99.90;;;;;;5067708;28;20290;-69
2023/04/13 10:38:26;;;;;;;0.73;0.45;;;11.60;99.90;;;;;;5065999;28;20252;-70
2023/04/13 10:40:54;;;;;;;0.50;0.30;;;11.80;99.90;;;;;;5069298;28;20268;-70
2023/04/13 10:43:29;;;;;;;0.60;0.40;;;12.10;99.90;;;;;;5065088;28;20286;-69
2023/04/13 10:46:07;;;;;;;0.50;0.30;;;12.60;99.90;;;;;;5066237;28;20230;-71
2023/04/13 10:48:36;;;;;;;0.50;0.40;;;13.00;99.90;;;;;;5064789;28;20207;-70
2023/04/13 10:51:04;;;;;;;0.50;0.40;;;13.00;99.90;;;;;;5065446;28;20636;-70
2023/04/13 10:53:34;;;;;;;0.50;0.30;;;12.80;99.90;;;;;;5065346;28;20207;-70
2023/04/13 10:56:03;;;;;;;0.50;0.30;;;12.80;99.90;;;;;;5068210;28;20678;-68
2023/04/13 10:58:32;;;;;;;0.50;0.40;;;13.20;99.90;;;;;;5066488;28;20207;-68
2023/04/13 11:01:02;;;;;;;0.50;0.30;;;13.40;99.90;;;;;;5066413;28;20200;-67
2023/04/13 11:03:30;;;;;;;0.50;0.30;;;13.30;99.90;;;;;;5067511;28;20199;-68
2023/04/13 11:05:59;;;;;;;0.50;0.30;;;13.30;99.90;;;;;;5063992;28;20273;-68
2023/04/13 11:08:29;;;;;;;0.50;0.30;;;14.00;99.90;;;;;;5065323;28;20863;-68
2023/04/13 11:10:58;;;;;;;0.50;0.30;;;14.30;99.90;;;;;;5062921;28;20211;-66
2023/04/13 11:13:27;;;;;;;0.50;0.30;;;14.20;99.90;;;;;;5070713;28;20228;-68
2023/04/13 11:16:03;;;;;;;0.50;0.30;;;13.50;99.90;;;;;;5063082;28;20574;-68
2023/04/13 11:18:32;;;;;;;0.77;0.40;;;13.20;99.90;;;;;;5030993;28;20208;-69
2023/04/13 11:21:01;;;;;;;0.50;0.30;;;12.70;99.90;;;;;;5030874;28;20227;-70
2023/04/13 11:23:34;;;;;;;0.50;0.30;;;12.10;99.90;;;;;;5030744;28;20845;-70
2023/04/13 11:26:04;;;;;;;0.50;0.30;;;11.40;99.90;;;;;;5030167;28;20208;-72
2023/04/13 11:28:39;;;;;;;0.50;0.30;;;11.00;99.90;;;;;;5030869;28;20283;-69
2023/04/13 11:31:07;;;;;;;0.50;0.40;;;11.10;99.90;;;;;;5035206;28;20283;-70
2023/04/13 11:33:35;;;;;;;0.50;0.38;;;11.70;99.90;;;;;;5029659;28;20275;-68
2023/04/13 11:36:08;;;;;;;0.60;0.40;;;12.60;99.90;;;;;;5034936;28;20628;-69
2023/04/13 11:38:39;;;;;;;0.50;0.30;;;13.40;99.90;;;;;;5030897;28;20263;-69
2023/04/13 11:41:09;;;;;;;0.63;0.63;;;14.10;99.90;;;;;;5026532;28;20259;-68
2023/04/13 11:43:40;;;;;;;0.50;0.40;;;14.40;99.90;;;;;;5026435;28;20221;-69
2023/04/13 11:46:11;;;;;;;0.50;0.30;;;14.60;99.90;;;;;;5025748;28;20704;-67
2023/04/13 11:48:40;;;;;;;1.83;1.20;;;14.20;99.90;;;;;;5023692;28;20216;-69
2023/04/13 11:51:09;;;;;;;0.50;0.30;;;14.70;99.90;;;;;;5033856;28;20207;-69
2023/04/13 11:53:38;;;;;;;0.50;0.30;;;15.40;99.90;;;;;;5036856;28;20266;-68
2023/04/13 11:56:08;;;;;;;0.70;0.40;;;15.40;99.90;;;;;;5030614;28;20219;-68
2023/04/13 11:58:37;;;;;;;0.50;0.30;;;15.20;99.90;;;;;;5024822;28;20287;-69
2023/04/13 12:01:06;;;;;;;0.50;0.40;;;15.50;99.90;;;;;;5027189;28;20634;-69
2023/04/13 12:03:42;;;;;;;0.50;0.30;;;15.60;99.90;;;;;;5029138;28;20212;-69
2023/04/13 12:06:33;;;;;;;0.50;0.40;;;15.30;99.90;;;;;;5030728;28;20228;-69
2023/04/13 12:09:04;;;;;;;0.50;0.30;;;15.30;99.90;;;;;;5022920;28;20627;-68
2023/04/13 12:11:42;;;;;;;0.50;0.30;;;15.90;99.90;;;;;;5030156;28;20272;-69
2023/04/13 12:14:21;;;;;;;0.52;0.38;;;16.40;99.90;;;;;;5030312;28;20263;-66
2023/04/13 12:16:52;;;;;;;0.50;0.30;;;16.10;99.90;;;;;;5040961;28;20318;-69
2023/04/13 12:19:23;;;;;;;0.98;0.40;;;16.40;99.90;;;;;;5069257;28;20369;-69
2023/04/13 12:21:54;;;;;;;0.50;0.40;;;16.70;99.90;;;;;;5065245;28;21126;-70
2023/04/13 12:24:32;;;;;;;0.50;0.30;;;16.90;99.90;;;;;;5065683;28;20207;-69
2023/04/13 12:27:05;;;;;;;0.60;0.40;;;17.20;99.90;;;;;;5065022;28;20223;-69
2023/04/13 12:29:39;;;;;;;0.88;0.57;;;17.20;99.90;;;;;;5066289;28;20191;-69
2023/04/13 12:32:12;;;;;;;0.50;0.30;;;17.40;99.90;;;;;;5061742;28;20220;-69
2023/04/13 12:34:41;;;;;;;0.50;0.40;;;17.40;99.90;;;;;;5067190;28;20203;-70
2023/04/13 12:37:10;;;;;;;0.50;0.30;;;18.10;99.90;;;;;;5067334;28;20780;-69
2023/04/13 12:39:38;;;;;;;0.73;0.60;;;18.60;99.90;;;;;;5064821;28;20223;-69
2023/04/13 12:42:07;;;;;;;0.50;0.30;;;18.90;99.90;;;;;;5065893;28;20203;-71
2023/04/13 12:44:35;;;;;;;0.50;0.30;;;18.30;99.90;;;;;;5063768;28;20211;-72
2023/04/13 12:47:04;;;;;;;0.50;0.30;;;17.20;99.90;;;;;;5071029;28;20223;-69
2023/04/13 12:49:32;;;;;;;0.50;0.30;;;16.50;99.90;;;;;;5068974;28;20222;-69
2023/04/13 12:52:00;;;;;;;0.50;0.30;;;15.30;99.90;;;;;;5068478;28;20207;-68
2023/04/13 12:54:29;;;;;;;0.60;0.40;;;14.50;99.90;;;;;;5069235;28;20610;-69
2023/04/13 12:56:58;;;;;;;0.60;0.40;;;14.00;99.90;;;;;;5068497;28;20251;-67
2023/04/13 12:59:27;;;;;;;0.50;0.30;;;13.80;99.90;;;;;;5073401;28;20624;-68
2023/04/13 13:01:55;;;;;;;0.50;0.40;;;13.20;99.90;;;;;;5073557;28;20593;-71
2023/04/13 13:04:23;;;;;;;0.50;0.30;;;12.70;99.90;;;;;;5052801;28;20195;-68
2023/04/13 13:06:51;;;;;;;0.50;0.30;;;12.40;99.90;;;;;;5070978;28;20703;-69